sensor_id;sensor_type;location;lat;lon;timestamp;P1;durP1;ratioP1;P2;durP2;ratioP2
25932;SDS011;13731;51.166;4.474;2023-03-01T00:01:14;52.88;;;49.58;;
25932;SDS011;13731;51.166;4.474;2023-03-01T00:03:51;49.25;;;46.15;;
25932;SDS011;13731;51.166;4.474;2023-03-01T00:06:18;38.30;;;35.65;;
25932;SDS011;13731;51.166;4.474;2023-03-01T00:08:44;39.13;;;36.53;;
25932;SDS011;13731;51.166;4.474;2023-03-01T00:13:46;44.17;;;41.30;;
25932;SDS011;13731;51.166;4.474;2023-03-01T00:16:18;42.83;;;39.80;;
25932;SDS011;13731;51.166;4.474;2023-03-01T00:18:47;44.47;;;41.47;;
25932;SDS011;13731;51.166;4.474;2023-03-01T00:21:13;44.88;;;41.92;;
25932;SDS011;13731;51.166;4.474;2023-03-01T00:23:39;42.63;;;39.83;;
25932;SDS011;13731;51.166;4.474;2023-03-01T00:26:06;41.03;;;38.28;;
25932;SDS011;13731;51.166;4.474;2023-03-01T00:28:34;42.03;;;39.22;;
25932;SDS011;13731;51.166;4.474;2023-03-01T00:31:08;40.85;;;38.05;;
25932;SDS011;13731;51.166;4.474;2023-03-01T00:33:37;40.50;;;37.60;;
25932;SDS011;13731;51.166;4.474;2023-03-01T00:36:04;39.75;;;37.08;;
25932;SDS011;13731;51.166;4.474;2023-03-01T00:38:33;40.47;;;37.78;;
25932;SDS011;13731;51.166;4.474;2023-03-01T00:41:05;43.58;;;40.38;;
25932;SDS011;13731;51.166;4.474;2023-03-01T00:43:34;46.15;;;43.15;;
25932;SDS011;13731;51.166;4.474;2023-03-01T00:46:02;45.42;;;42.13;;
25932;SDS011;13731;51.166;4.474;2023-03-01T00:48:30;49.60;;;46.13;;
25932;SDS011;13731;51.166;4.474;2023-03-01T00:50:55;45.70;;;42.90;;
25932;SDS011;13731;51.166;4.474;2023-03-01T00:53:21;47.65;;;44.55;;
25932;SDS011;13731;51.166;4.474;2023-03-01T00:55:47;48.65;;;45.53;;
25932;SDS011;13731;51.166;4.474;2023-03-01T00:58:13;67.13;;;63.20;;
25932;SDS011;13731;51.166;4.474;2023-03-01T01:00:39;50.42;;;46.85;;
25932;SDS011;13731;51.166;4.474;2023-03-01T01:03:05;48.25;;;45.13;;
25932;SDS011;13731;51.166;4.474;2023-03-01T01:05:33;50.10;;;46.90;;
25932;SDS011;13731;51.166;4.474;2023-03-01T01:10:26;51.30;;;48.00;;
25932;SDS011;13731;51.166;4.474;2023-03-01T01:12:52;53.28;;;49.60;;
25932;SDS011;13731;51.166;4.474;2023-03-01T01:15:18;54.10;;;50.58;;
25932;SDS011;13731;51.166;4.474;2023-03-01T01:17:44;54.33;;;51.15;;
25932;SDS011;13731;51.166;4.474;2023-03-01T01:20:10;56.10;;;52.20;;
25932;SDS011;13731;51.166;4.474;2023-03-01T01:22:36;53.78;;;50.15;;
25932;SDS011;13731;51.166;4.474;2023-03-01T01:25:02;51.92;;;48.63;;
25932;SDS011;13731;51.166;4.474;2023-03-01T01:27:29;52.22;;;48.95;;
25932;SDS011;13731;51.166;4.474;2023-03-01T01:29:56;54.85;;;51.35;;
25932;SDS011;13731;51.166;4.474;2023-03-01T01:32:22;53.78;;;50.45;;
25932;SDS011;13731;51.166;4.474;2023-03-01T01:34:48;53.75;;;50.50;;
25932;SDS011;13731;51.166;4.474;2023-03-01T01:37:14;54.28;;;50.88;;
25932;SDS011;13731;51.166;4.474;2023-03-01T01:39:40;53.13;;;49.78;;
25932;SDS011;13731;51.166;4.474;2023-03-01T01:42:08;52.90;;;49.47;;
25932;SDS011;13731;51.166;4.474;2023-03-01T01:44:42;52.58;;;49.15;;
25932;SDS011;13731;51.166;4.474;2023-03-01T01:47:18;52.30;;;49.15;;
25932;SDS011;13731;51.166;4.474;2023-03-01T01:49:48;52.38;;;49.08;;
25932;SDS011;13731;51.166;4.474;2023-03-01T01:55:03;53.13;;;49.47;;
25932;SDS011;13731;51.166;4.474;2023-03-01T01:57:39;48.40;;;45.13;;
25932;SDS011;13731;51.166;4.474;2023-03-01T02:00:13;46.78;;;43.58;;
25932;SDS011;13731;51.166;4.474;2023-03-01T02:02:44;47.88;;;44.83;;
25932;SDS011;13731;51.166;4.474;2023-03-01T02:07:51;43.80;;;41.03;;
25932;SDS011;13731;51.166;4.474;2023-03-01T02:10:19;44.25;;;41.25;;
25932;SDS011;13731;51.166;4.474;2023-03-01T02:12:47;44.42;;;41.38;;
25932;SDS011;13731;51.166;4.474;2023-03-01T02:15:13;44.85;;;41.70;;
25932;SDS011;13731;51.166;4.474;2023-03-01T02:17:39;46.58;;;43.58;;
25932;SDS011;13731;51.166;4.474;2023-03-01T02:22:36;42.30;;;39.60;;
25932;SDS011;13731;51.166;4.474;2023-03-01T02:30:29;42.67;;;39.67;;
25932;SDS011;13731;51.166;4.474;2023-03-01T02:32:56;43.85;;;40.85;;
25932;SDS011;13731;51.166;4.474;2023-03-01T02:35:30;47.00;;;44.03;;
25932;SDS011;13731;51.166;4.474;2023-03-01T02:38:01;46.00;;;43.08;;
25932;SDS011;13731;51.166;4.474;2023-03-01T02:40:28;44.45;;;41.53;;
25932;SDS011;13731;51.166;4.474;2023-03-01T02:42:56;45.78;;;42.78;;
25932;SDS011;13731;51.166;4.474;2023-03-01T02:45:24;47.20;;;44.08;;
25932;SDS011;13731;51.166;4.474;2023-03-01T02:47:55;44.38;;;41.47;;
25932;SDS011;13731;51.166;4.474;2023-03-01T02:55:42;42.63;;;39.85;;
25932;SDS011;13731;51.166;4.474;2023-03-01T02:58:08;46.05;;;42.45;;
25932;SDS011;13731;51.166;4.474;2023-03-01T03:00:38;43.38;;;40.58;;
25932;SDS011;13731;51.166;4.474;2023-03-01T03:03:13;42.25;;;39.28;;
25932;SDS011;13731;51.166;4.474;2023-03-01T03:05:40;41.97;;;39.17;;
25932;SDS011;13731;51.166;4.474;2023-03-01T03:08:06;41.08;;;38.33;;
25932;SDS011;13731;51.166;4.474;2023-03-01T03:10:36;39.47;;;36.75;;
25932;SDS011;13731;51.166;4.474;2023-03-01T03:13:13;40.33;;;37.45;;
25932;SDS011;13731;51.166;4.474;2023-03-01T03:15:42;35.45;;;33.03;;
25932;SDS011;13731;51.166;4.474;2023-03-01T03:18:10;37.13;;;34.28;;
25932;SDS011;13731;51.166;4.474;2023-03-01T03:20:38;36.80;;;33.85;;
25932;SDS011;13731;51.166;4.474;2023-03-01T03:23:06;37.65;;;35.05;;
25932;SDS011;13731;51.166;4.474;2023-03-01T03:25:32;36.83;;;34.22;;
25932;SDS011;13731;51.166;4.474;2023-03-01T03:28:03;36.33;;;33.83;;
25932;SDS011;13731;51.166;4.474;2023-03-01T03:30:35;37.47;;;34.60;;
25932;SDS011;13731;51.166;4.474;2023-03-01T03:33:06;35.60;;;33.20;;
25932;SDS011;13731;51.166;4.474;2023-03-01T03:35:34;37.78;;;35.17;;
25932;SDS011;13731;51.166;4.474;2023-03-01T03:38:06;44.33;;;41.25;;
25932;SDS011;13731;51.166;4.474;2023-03-01T03:40:41;39.35;;;36.65;;
25932;SDS011;13731;51.166;4.474;2023-03-01T03:43:13;43.33;;;40.25;;
25932;SDS011;13731;51.166;4.474;2023-03-01T03:45:43;40.05;;;37.00;;
25932;SDS011;13731;51.166;4.474;2023-03-01T03:48:10;37.25;;;34.63;;
25932;SDS011;13731;51.166;4.474;2023-03-01T03:50:38;37.90;;;35.10;;
25932;SDS011;13731;51.166;4.474;2023-03-01T03:53:06;37.78;;;35.00;;
25932;SDS011;13731;51.166;4.474;2023-03-01T03:55:34;39.95;;;37.15;;
25932;SDS011;13731;51.166;4.474;2023-03-01T03:58:05;39.97;;;37.08;;
25932;SDS011;13731;51.166;4.474;2023-03-01T04:00:33;38.17;;;35.35;;
25932;SDS011;13731;51.166;4.474;2023-03-01T04:03:00;39.15;;;36.50;;
25932;SDS011;13731;51.166;4.474;2023-03-01T04:05:26;41.05;;;38.28;;
25932;SDS011;13731;51.166;4.474;2023-03-01T04:07:53;42.20;;;39.40;;
25932;SDS011;13731;51.166;4.474;2023-03-01T04:10:27;42.65;;;39.67;;
25932;SDS011;13731;51.166;4.474;2023-03-01T04:12:56;41.20;;;38.33;;
25932;SDS011;13731;51.166;4.474;2023-03-01T04:15:23;43.05;;;40.33;;
25932;SDS011;13731;51.166;4.474;2023-03-01T04:17:51;50.03;;;47.03;;
25932;SDS011;13731;51.166;4.474;2023-03-01T04:20:19;47.88;;;44.80;;
25932;SDS011;13731;51.166;4.474;2023-03-01T04:23:01;51.35;;;47.88;;
25932;SDS011;13731;51.166;4.474;2023-03-01T04:25:37;47.25;;;44.28;;
25932;SDS011;13731;51.166;4.474;2023-03-01T04:28:04;50.90;;;47.37;;
25932;SDS011;13731;51.166;4.474;2023-03-01T04:30:30;47.10;;;43.92;;
25932;SDS011;13731;51.166;4.474;2023-03-01T04:33:07;51.03;;;47.38;;
25932;SDS011;13731;51.166;4.474;2023-03-01T04:35:35;47.35;;;43.83;;
25932;SDS011;13731;51.166;4.474;2023-03-01T04:38:02;47.08;;;43.90;;
25932;SDS011;13731;51.166;4.474;2023-03-01T04:40:28;44.20;;;41.40;;
25932;SDS011;13731;51.166;4.474;2023-03-01T04:42:54;47.20;;;44.03;;
25932;SDS011;13731;51.166;4.474;2023-03-01T04:45:20;43.20;;;40.45;;
25932;SDS011;13731;51.166;4.474;2023-03-01T04:47:47;44.25;;;41.35;;
25932;SDS011;13731;51.166;4.474;2023-03-01T04:50:14;47.35;;;44.28;;
25932;SDS011;13731;51.166;4.474;2023-03-01T04:52:42;49.85;;;46.67;;
25932;SDS011;13731;51.166;4.474;2023-03-01T04:55:09;45.40;;;42.30;;
25932;SDS011;13731;51.166;4.474;2023-03-01T04:57:35;46.03;;;42.80;;
25932;SDS011;13731;51.166;4.474;2023-03-01T05:00:02;47.53;;;44.28;;
25932;SDS011;13731;51.166;4.474;2023-03-01T05:05:26;45.50;;;42.17;;
25932;SDS011;13731;51.166;4.474;2023-03-01T05:07:57;47.50;;;44.20;;
25932;SDS011;13731;51.166;4.474;2023-03-01T05:10:25;46.40;;;43.45;;
25932;SDS011;13731;51.166;4.474;2023-03-01T05:12:54;48.90;;;45.90;;
25932;SDS011;13731;51.166;4.474;2023-03-01T05:15:22;49.88;;;46.42;;
25932;SDS011;13731;51.166;4.474;2023-03-01T05:17:57;46.63;;;43.53;;
25932;SDS011;13731;51.166;4.474;2023-03-01T05:20:25;44.67;;;41.40;;
25932;SDS011;13731;51.166;4.474;2023-03-01T05:22:55;46.67;;;43.63;;
25932;SDS011;13731;51.166;4.474;2023-03-01T05:25:24;47.47;;;44.38;;
25932;SDS011;13731;51.166;4.474;2023-03-01T05:27:50;52.50;;;49.20;;
25932;SDS011;13731;51.166;4.474;2023-03-01T05:30:16;49.20;;;46.05;;
25932;SDS011;13731;51.166;4.474;2023-03-01T05:32:43;45.38;;;41.88;;
25932;SDS011;13731;51.166;4.474;2023-03-01T05:35:11;41.60;;;38.38;;
25932;SDS011;13731;51.166;4.474;2023-03-01T05:37:39;41.38;;;38.47;;
25932;SDS011;13731;51.166;4.474;2023-03-01T05:40:07;44.30;;;41.27;;
25932;SDS011;13731;51.166;4.474;2023-03-01T05:42:41;42.08;;;39.17;;
25932;SDS011;13731;51.166;4.474;2023-03-01T05:45:08;43.22;;;40.08;;
25932;SDS011;13731;51.166;4.474;2023-03-01T05:47:35;45.00;;;41.90;;
25932;SDS011;13731;51.166;4.474;2023-03-01T05:50:01;45.45;;;42.22;;
25932;SDS011;13731;51.166;4.474;2023-03-01T05:52:27;42.55;;;39.55;;
25932;SDS011;13731;51.166;4.474;2023-03-01T05:54:53;45.55;;;42.15;;
25932;SDS011;13731;51.166;4.474;2023-03-01T05:57:20;46.00;;;42.70;;
25932;SDS011;13731;51.166;4.474;2023-03-01T05:59:46;44.60;;;41.72;;
25932;SDS011;13731;51.166;4.474;2023-03-01T06:02:12;45.58;;;42.58;;
25932;SDS011;13731;51.166;4.474;2023-03-01T06:04:38;47.08;;;43.67;;
25932;SDS011;13731;51.166;4.474;2023-03-01T06:07:04;51.42;;;47.72;;
25932;SDS011;13731;51.166;4.474;2023-03-01T06:09:29;43.95;;;41.08;;
25932;SDS011;13731;51.166;4.474;2023-03-01T06:11:55;43.28;;;40.00;;
25932;SDS011;13731;51.166;4.474;2023-03-01T06:14:21;46.13;;;43.00;;
25932;SDS011;13731;51.166;4.474;2023-03-01T06:16:47;43.17;;;40.20;;
25932;SDS011;13731;51.166;4.474;2023-03-01T06:19:13;44.90;;;41.63;;
25932;SDS011;13731;51.166;4.474;2023-03-01T06:21:39;39.40;;;36.38;;
25932;SDS011;13731;51.166;4.474;2023-03-01T06:24:04;36.17;;;33.42;;
25932;SDS011;13731;51.166;4.474;2023-03-01T06:26:32;38.83;;;35.60;;
25932;SDS011;13731;51.166;4.474;2023-03-01T06:28:58;37.65;;;34.53;;
25932;SDS011;13731;51.166;4.474;2023-03-01T06:31:24;35.65;;;33.08;;
25932;SDS011;13731;51.166;4.474;2023-03-01T06:33:50;39.55;;;35.92;;
25932;SDS011;13731;51.166;4.474;2023-03-01T06:36:15;36.45;;;32.80;;
25932;SDS011;13731;51.166;4.474;2023-03-01T06:38:44;37.80;;;34.75;;
25932;SDS011;13731;51.166;4.474;2023-03-01T06:41:09;33.70;;;31.08;;
25932;SDS011;13731;51.166;4.474;2023-03-01T06:43:35;37.38;;;34.47;;
25932;SDS011;13731;51.166;4.474;2023-03-01T06:46:05;37.63;;;34.70;;
25932;SDS011;13731;51.166;4.474;2023-03-01T06:48:32;37.20;;;34.60;;
25932;SDS011;13731;51.166;4.474;2023-03-01T06:50:59;37.45;;;34.45;;
25932;SDS011;13731;51.166;4.474;2023-03-01T06:53:29;39.05;;;35.90;;
25932;SDS011;13731;51.166;4.474;2023-03-01T06:55:58;36.63;;;33.50;;
25932;SDS011;13731;51.166;4.474;2023-03-01T06:58:27;39.03;;;36.05;;
25932;SDS011;13731;51.166;4.474;2023-03-01T07:00:53;40.95;;;37.78;;
25932;SDS011;13731;51.166;4.474;2023-03-01T07:03:19;44.17;;;40.85;;
25932;SDS011;13731;51.166;4.474;2023-03-01T07:05:48;44.38;;;40.83;;
25932;SDS011;13731;51.166;4.474;2023-03-01T07:08:15;45.58;;;42.38;;
25932;SDS011;13731;51.166;4.474;2023-03-01T07:10:41;47.40;;;44.10;;
25932;SDS011;13731;51.166;4.474;2023-03-01T07:13:08;49.00;;;45.50;;
25932;SDS011;13731;51.166;4.474;2023-03-01T07:15:34;49.17;;;45.97;;
25932;SDS011;13731;51.166;4.474;2023-03-01T07:17:59;54.25;;;50.63;;
25932;SDS011;13731;51.166;4.474;2023-03-01T07:20:25;55.05;;;51.42;;
25932;SDS011;13731;51.166;4.474;2023-03-01T07:22:52;58.45;;;54.80;;
25932;SDS011;13731;51.166;4.474;2023-03-01T07:25:18;61.30;;;57.20;;
25932;SDS011;13731;51.166;4.474;2023-03-01T07:27:48;59.83;;;55.72;;
25932;SDS011;13731;51.166;4.474;2023-03-01T07:30:15;62.55;;;58.50;;
25932;SDS011;13731;51.166;4.474;2023-03-01T07:32:41;66.03;;;62.17;;
25932;SDS011;13731;51.166;4.474;2023-03-01T07:35:07;64.43;;;60.47;;
25932;SDS011;13731;51.166;4.474;2023-03-01T07:37:33;60.25;;;56.40;;
25932;SDS011;13731;51.166;4.474;2023-03-01T07:39:59;56.72;;;52.45;;
25932;SDS011;13731;51.166;4.474;2023-03-01T07:42:25;57.05;;;52.88;;
25932;SDS011;13731;51.166;4.474;2023-03-01T07:44:51;59.72;;;55.72;;
25932;SDS011;13731;51.166;4.474;2023-03-01T07:47:17;54.97;;;50.50;;
25932;SDS011;13731;51.166;4.474;2023-03-01T07:49:43;56.67;;;52.97;;
25932;SDS011;13731;51.166;4.474;2023-03-01T07:52:12;58.75;;;54.90;;
25932;SDS011;13731;51.166;4.474;2023-03-01T07:54:38;57.75;;;54.05;;
25932;SDS011;13731;51.166;4.474;2023-03-01T07:57:07;55.47;;;51.60;;
25932;SDS011;13731;51.166;4.474;2023-03-01T07:59:33;56.92;;;53.03;;
25932;SDS011;13731;51.166;4.474;2023-03-01T08:01:59;58.75;;;54.92;;
25932;SDS011;13731;51.166;4.474;2023-03-01T08:04:25;61.00;;;57.05;;
25932;SDS011;13731;51.166;4.474;2023-03-01T08:06:52;57.08;;;52.88;;
25932;SDS011;13731;51.166;4.474;2023-03-01T08:09:18;60.70;;;56.85;;
25932;SDS011;13731;51.166;4.474;2023-03-01T08:11:44;62.13;;;58.00;;
25932;SDS011;13731;51.166;4.474;2023-03-01T08:14:09;59.53;;;55.78;;
25932;SDS011;13731;51.166;4.474;2023-03-01T08:16:35;64.45;;;60.17;;
25932;SDS011;13731;51.166;4.474;2023-03-01T08:19:05;57.65;;;54.05;;
25932;SDS011;13731;51.166;4.474;2023-03-01T08:21:35;55.47;;;51.58;;
25932;SDS011;13731;51.166;4.474;2023-03-01T08:24:03;62.33;;;58.53;;
25932;SDS011;13731;51.166;4.474;2023-03-01T08:26:31;42.13;;;39.03;;
25932;SDS011;13731;51.166;4.474;2023-03-01T08:28:59;39.90;;;36.97;;
25932;SDS011;13731;51.166;4.474;2023-03-01T08:31:30;35.92;;;33.17;;
25932;SDS011;13731;51.166;4.474;2023-03-01T08:34:00;39.55;;;36.72;;
25932;SDS011;13731;51.166;4.474;2023-03-01T08:36:29;46.13;;;42.95;;
25932;SDS011;13731;51.166;4.474;2023-03-01T08:38:57;34.60;;;31.90;;
25932;SDS011;13731;51.166;4.474;2023-03-01T08:41:23;32.60;;;29.58;;
25932;SDS011;13731;51.166;4.474;2023-03-01T08:43:50;34.67;;;31.88;;
25932;SDS011;13731;51.166;4.474;2023-03-01T08:46:16;32.53;;;29.58;;
25932;SDS011;13731;51.166;4.474;2023-03-01T08:48:42;32.15;;;28.95;;
25932;SDS011;13731;51.166;4.474;2023-03-01T08:51:12;33.28;;;30.88;;
25932;SDS011;13731;51.166;4.474;2023-03-01T08:53:43;33.45;;;30.67;;
25932;SDS011;13731;51.166;4.474;2023-03-01T08:56:10;35.78;;;33.10;;
25932;SDS011;13731;51.166;4.474;2023-03-01T08:58:36;28.15;;;25.92;;
25932;SDS011;13731;51.166;4.474;2023-03-01T09:01:06;55.40;;;52.00;;
25932;SDS011;13731;51.166;4.474;2023-03-01T09:03:34;31.50;;;29.30;;
25932;SDS011;13731;51.166;4.474;2023-03-01T09:06:00;31.00;;;28.45;;
25932;SDS011;13731;51.166;4.474;2023-03-01T09:08:28;38.15;;;35.17;;
25932;SDS011;13731;51.166;4.474;2023-03-01T09:10:54;29.65;;;27.45;;
25932;SDS011;13731;51.166;4.474;2023-03-01T09:13:20;29.13;;;26.85;;
25932;SDS011;13731;51.166;4.474;2023-03-01T09:15:50;34.15;;;31.83;;
25932;SDS011;13731;51.166;4.474;2023-03-01T09:18:16;29.70;;;27.40;;
25932;SDS011;13731;51.166;4.474;2023-03-01T09:20:42;29.88;;;27.48;;
25932;SDS011;13731;51.166;4.474;2023-03-01T09:23:08;30.80;;;28.70;;
25932;SDS011;13731;51.166;4.474;2023-03-01T09:25:34;30.80;;;28.33;;
25932;SDS011;13731;51.166;4.474;2023-03-01T09:28:01;32.97;;;30.58;;
25932;SDS011;13731;51.166;4.474;2023-03-01T09:30:27;33.28;;;30.77;;
25932;SDS011;13731;51.166;4.474;2023-03-01T09:32:53;32.58;;;29.92;;
25932;SDS011;13731;51.166;4.474;2023-03-01T09:35:18;31.83;;;29.23;;
25932;SDS011;13731;51.166;4.474;2023-03-01T09:37:45;33.38;;;31.02;;
25932;SDS011;13731;51.166;4.474;2023-03-01T09:40:18;34.45;;;32.05;;
25932;SDS011;13731;51.166;4.474;2023-03-01T09:42:51;34.53;;;31.88;;
25932;SDS011;13731;51.166;4.474;2023-03-01T09:45:29;30.15;;;28.02;;
25932;SDS011;13731;51.166;4.474;2023-03-01T09:48:00;30.48;;;28.15;;
25932;SDS011;13731;51.166;4.474;2023-03-01T09:50:28;34.10;;;31.67;;
25932;SDS011;13731;51.166;4.474;2023-03-01T09:55:27;31.92;;;29.73;;
25932;SDS011;13731;51.166;4.474;2023-03-01T10:00:47;28.60;;;26.10;;
25932;SDS011;13731;51.166;4.474;2023-03-01T10:11:22;28.58;;;26.50;;
25932;SDS011;13731;51.166;4.474;2023-03-01T10:14:05;30.63;;;28.15;;
25932;SDS011;13731;51.166;4.474;2023-03-01T10:16:55;29.20;;;26.98;;
25932;SDS011;13731;51.166;4.474;2023-03-01T10:19:39;33.47;;;31.08;;
25932;SDS011;13731;51.166;4.474;2023-03-01T10:22:11;38.85;;;36.53;;
25932;SDS011;13731;51.166;4.474;2023-03-01T10:24:46;35.40;;;33.00;;
25932;SDS011;13731;51.166;4.474;2023-03-01T10:27:23;32.58;;;30.15;;
25932;SDS011;13731;51.166;4.474;2023-03-01T10:32:53;24.45;;;22.40;;
25932;SDS011;13731;51.166;4.474;2023-03-01T10:35:21;21.13;;;19.38;;
25932;SDS011;13731;51.166;4.474;2023-03-01T10:38:23;18.05;;;16.20;;
25932;SDS011;13731;51.166;4.474;2023-03-01T10:40:56;19.77;;;18.02;;
25932;SDS011;13731;51.166;4.474;2023-03-01T10:43:30;19.35;;;17.65;;
25932;SDS011;13731;51.166;4.474;2023-03-01T10:51:43;22.83;;;16.60;;
25932;SDS011;13731;51.166;4.474;2023-03-01T10:54:22;16.30;;;14.68;;
25932;SDS011;13731;51.166;4.474;2023-03-01T10:56:58;16.50;;;15.07;;
25932;SDS011;13731;51.166;4.474;2023-03-01T10:59:36;17.88;;;16.23;;
25932;SDS011;13731;51.166;4.474;2023-03-01T11:05:00;22.27;;;20.77;;
25932;SDS011;13731;51.166;4.474;2023-03-01T11:10:33;20.40;;;19.00;;
25932;SDS011;13731;51.166;4.474;2023-03-01T11:13:08;23.83;;;22.23;;
25932;SDS011;13731;51.166;4.474;2023-03-01T11:15:40;23.48;;;22.00;;
25932;SDS011;13731;51.166;4.474;2023-03-01T11:18:20;19.15;;;17.75;;
25932;SDS011;13731;51.166;4.474;2023-03-01T11:20:47;20.05;;;18.42;;
25932;SDS011;13731;51.166;4.474;2023-03-01T11:23:16;21.83;;;19.67;;
25932;SDS011;13731;51.166;4.474;2023-03-01T11:25:46;19.17;;;17.75;;
25932;SDS011;13731;51.166;4.474;2023-03-01T11:28:33;16.30;;;14.88;;
25932;SDS011;13731;51.166;4.474;2023-03-01T11:31:04;19.35;;;18.05;;
25932;SDS011;13731;51.166;4.474;2023-03-01T11:33:56;19.75;;;18.35;;
25932;SDS011;13731;51.166;4.474;2023-03-01T11:39:27;20.85;;;19.10;;
25932;SDS011;13731;51.166;4.474;2023-03-01T11:42:15;16.25;;;15.00;;
25932;SDS011;13731;51.166;4.474;2023-03-01T11:44:49;16.00;;;14.80;;
25932;SDS011;13731;51.166;4.474;2023-03-01T11:47:22;17.30;;;15.98;;
25932;SDS011;13731;51.166;4.474;2023-03-01T11:55:56;16.27;;;15.07;;
25932;SDS011;13731;51.166;4.474;2023-03-01T12:14:43;15.77;;;14.38;;
25932;SDS011;13731;51.166;4.474;2023-03-01T12:17:38;16.45;;;14.88;;
25932;SDS011;13731;51.166;4.474;2023-03-01T12:25:20;16.35;;;15.13;;
25932;SDS011;13731;51.166;4.474;2023-03-01T12:36:24;16.58;;;15.27;;
25932;SDS011;13731;51.166;4.474;2023-03-01T12:38:42;18.88;;;17.33;;
25932;SDS011;13731;51.166;4.474;2023-03-01T12:47:26;59.58;;;56.42;;
25932;SDS011;13731;51.166;4.474;2023-03-01T12:50:19;44.72;;;42.05;;
25932;SDS011;13731;51.166;4.474;2023-03-01T12:52:48;42.33;;;39.83;;
25932;SDS011;13731;51.166;4.474;2023-03-01T12:55:29;35.35;;;33.33;;
25932;SDS011;13731;51.166;4.474;2023-03-01T13:03:44;26.35;;;24.45;;
25932;SDS011;13731;51.166;4.474;2023-03-01T13:06:35;21.42;;;19.92;;
25932;SDS011;13731;51.166;4.474;2023-03-01T13:09:05;19.42;;;18.13;;
25932;SDS011;13731;51.166;4.474;2023-03-01T13:11:41;21.67;;;20.17;;
25932;SDS011;13731;51.166;4.474;2023-03-01T13:16:47;33.08;;;31.13;;
25932;SDS011;13731;51.166;4.474;2023-03-01T13:19:17;33.42;;;31.30;;
25932;SDS011;13731;51.166;4.474;2023-03-01T13:21:47;31.02;;;29.17;;
25932;SDS011;13731;51.166;4.474;2023-03-01T13:29:43;29.55;;;27.73;;
25932;SDS011;13731;51.166;4.474;2023-03-01T13:37:51;24.75;;;23.05;;
25932;SDS011;13731;51.166;4.474;2023-03-01T13:42:45;38.03;;;35.83;;
25932;SDS011;13731;51.166;4.474;2023-03-01T13:45:16;28.35;;;26.58;;
25932;SDS011;13731;51.166;4.474;2023-03-01T13:47:44;28.83;;;26.88;;
25932;SDS011;13731;51.166;4.474;2023-03-01T13:50:18;27.38;;;25.55;;
25932;SDS011;13731;51.166;4.474;2023-03-01T13:52:57;26.38;;;24.58;;
25932;SDS011;13731;51.166;4.474;2023-03-01T13:55:32;36.22;;;33.95;;
25932;SDS011;13731;51.166;4.474;2023-03-01T13:58:01;24.13;;;22.27;;
25932;SDS011;13731;51.166;4.474;2023-03-01T14:00:34;22.83;;;20.95;;
25932;SDS011;13731;51.166;4.474;2023-03-01T14:05:40;15.20;;;14.10;;
25932;SDS011;13731;51.166;4.474;2023-03-01T14:08:18;15.68;;;14.57;;
25932;SDS011;13731;51.166;4.474;2023-03-01T14:10:53;15.57;;;14.43;;
25932;SDS011;13731;51.166;4.474;2023-03-01T14:16:02;15.93;;;14.82;;
25932;SDS011;13731;51.166;4.474;2023-03-01T14:21:19;18.77;;;17.02;;
25932;SDS011;13731;51.166;4.474;2023-03-01T14:23:45;17.05;;;15.85;;
25932;SDS011;13731;51.166;4.474;2023-03-01T14:26:11;17.48;;;15.98;;
25932;SDS011;13731;51.166;4.474;2023-03-01T14:28:38;17.25;;;16.05;;
25932;SDS011;13731;51.166;4.474;2023-03-01T14:33:55;18.70;;;17.08;;
25932;SDS011;13731;51.166;4.474;2023-03-01T14:36:25;19.45;;;18.05;;
25932;SDS011;13731;51.166;4.474;2023-03-01T14:38:52;17.25;;;15.95;;
25932;SDS011;13731;51.166;4.474;2023-03-01T14:41:23;18.65;;;17.25;;
25932;SDS011;13731;51.166;4.474;2023-03-01T14:43:55;18.25;;;17.00;;
25932;SDS011;13731;51.166;4.474;2023-03-01T14:48:54;21.75;;;20.23;;
25932;SDS011;13731;51.166;4.474;2023-03-01T14:51:26;18.42;;;17.20;;
25932;SDS011;13731;51.166;4.474;2023-03-01T14:53:52;26.35;;;24.65;;
25932;SDS011;13731;51.166;4.474;2023-03-01T14:56:19;21.17;;;19.38;;
25932;SDS011;13731;51.166;4.474;2023-03-01T14:58:46;19.55;;;18.13;;
25932;SDS011;13731;51.166;4.474;2023-03-01T15:01:16;21.88;;;20.40;;
25932;SDS011;13731;51.166;4.474;2023-03-01T15:03:44;18.63;;;17.25;;
25932;SDS011;13731;51.166;4.474;2023-03-01T15:06:14;19.30;;;17.52;;
25932;SDS011;13731;51.166;4.474;2023-03-01T15:08:47;16.95;;;15.48;;
25932;SDS011;13731;51.166;4.474;2023-03-01T15:11:17;16.33;;;15.00;;
25932;SDS011;13731;51.166;4.474;2023-03-01T15:13:49;16.58;;;14.98;;
25932;SDS011;13731;51.166;4.474;2023-03-01T15:16:18;18.77;;;17.50;;
25932;SDS011;13731;51.166;4.474;2023-03-01T15:18:59;17.13;;;15.65;;
25932;SDS011;13731;51.166;4.474;2023-03-01T15:21:33;14.13;;;13.00;;
25932;SDS011;13731;51.166;4.474;2023-03-01T15:26:52;23.48;;;21.58;;
25932;SDS011;13731;51.166;4.474;2023-03-01T15:29:24;29.65;;;27.70;;
25932;SDS011;13731;51.166;4.474;2023-03-01T15:34:29;29.52;;;27.52;;
25932;SDS011;13731;51.166;4.474;2023-03-01T15:36:59;32.33;;;30.20;;
25932;SDS011;13731;51.166;4.474;2023-03-01T15:42:11;21.20;;;19.58;;
25932;SDS011;13731;51.166;4.474;2023-03-01T15:45:08;17.50;;;15.90;;
25932;SDS011;13731;51.166;4.474;2023-03-01T15:47:34;16.77;;;15.38;;
25932;SDS011;13731;51.166;4.474;2023-03-01T15:50:01;17.63;;;16.00;;
25932;SDS011;13731;51.166;4.474;2023-03-01T15:52:34;16.65;;;14.98;;
25932;SDS011;13731;51.166;4.474;2023-03-01T15:55:23;15.60;;;14.18;;
25932;SDS011;13731;51.166;4.474;2023-03-01T15:58:04;16.17;;;14.77;;
25932;SDS011;13731;51.166;4.474;2023-03-01T16:00:34;16.25;;;14.95;;
25932;SDS011;13731;51.166;4.474;2023-03-01T16:03:00;17.05;;;15.35;;
25932;SDS011;13731;51.166;4.474;2023-03-01T16:05:28;17.48;;;15.50;;
25932;SDS011;13731;51.166;4.474;2023-03-01T16:07:58;16.17;;;14.98;;
25932;SDS011;13731;51.166;4.474;2023-03-01T16:10:25;17.35;;;15.85;;
25932;SDS011;13731;51.166;4.474;2023-03-01T16:12:51;16.33;;;14.80;;
25932;SDS011;13731;51.166;4.474;2023-03-01T16:15:25;15.88;;;14.52;;
25932;SDS011;13731;51.166;4.474;2023-03-01T16:17:53;16.10;;;14.80;;
25932;SDS011;13731;51.166;4.474;2023-03-01T16:20:22;19.05;;;17.17;;
25932;SDS011;13731;51.166;4.474;2023-03-01T16:22:48;16.67;;;15.07;;
25932;SDS011;13731;51.166;4.474;2023-03-01T16:25:15;17.38;;;15.75;;
25932;SDS011;13731;51.166;4.474;2023-03-01T16:27:46;17.00;;;15.50;;
25932;SDS011;13731;51.166;4.474;2023-03-01T16:30:15;16.83;;;15.23;;
25932;SDS011;13731;51.166;4.474;2023-03-01T16:32:44;16.98;;;15.57;;
25932;SDS011;13731;51.166;4.474;2023-03-01T16:35:11;18.38;;;16.48;;
25932;SDS011;13731;51.166;4.474;2023-03-01T16:37:39;17.25;;;15.73;;
25932;SDS011;13731;51.166;4.474;2023-03-01T16:40:06;17.83;;;16.45;;
25932;SDS011;13731;51.166;4.474;2023-03-01T16:42:42;18.88;;;17.40;;
25932;SDS011;13731;51.166;4.474;2023-03-01T16:45:08;19.67;;;17.77;;
25932;SDS011;13731;51.166;4.474;2023-03-01T16:47:34;18.90;;;17.30;;
25932;SDS011;13731;51.166;4.474;2023-03-01T16:50:01;18.85;;;17.25;;
25932;SDS011;13731;51.166;4.474;2023-03-01T16:52:27;16.52;;;15.13;;
25932;SDS011;13731;51.166;4.474;2023-03-01T16:54:54;17.73;;;16.33;;
25932;SDS011;13731;51.166;4.474;2023-03-01T16:57:20;18.77;;;17.25;;